createdAt,value
2024-01-29T00:01:40.621Z,0.62
2024-01-29T00:04:09.779Z,0.42
2024-01-29T00:06:37.698Z,0.80
2024-01-29T00:09:05.360Z,0.68
2024-01-29T00:11:34.297Z,0.82
2024-01-29T00:14:02.739Z,0.76
2024-01-29T00:16:30.879Z,0.71
2024-01-29T00:18:58.582Z,0.75
2024-01-29T00:21:27.609Z,0.75
2024-01-29T00:23:57.077Z,0.76
2024-01-29T00:26:24.953Z,0.67
2024-01-29T00:28:52.529Z,0.85
2024-01-29T00:31:21.998Z,0.81
2024-01-29T00:33:50.022Z,0.79
2024-01-29T00:36:17.746Z,0.82
2024-01-29T00:38:47.230Z,0.77
2024-01-29T00:41:14.931Z,0.52
2024-01-29T00:43:42.572Z,0.55
2024-01-29T00:46:10.186Z,0.67
2024-01-29T00:48:38.081Z,0.43
2024-01-29T00:51:05.720Z,0.67
2024-01-29T00:53:33.326Z,0.64
2024-01-29T00:56:02.247Z,0.64
2024-01-29T00:58:29.996Z,0.58
2024-01-29T01:00:57.668Z,0.64
2024-01-29T01:03:25.715Z,0.69
2024-01-29T01:05:53.462Z,0.64
2024-01-29T01:08:21.248Z,0.44
2024-01-29T01:10:48.954Z,0.54
2024-01-29T01:13:17.985Z,0.52
2024-01-29T01:15:45.738Z,0.56
2024-01-29T01:18:13.697Z,0.36
2024-01-29T01:20:41.392Z,0.39
2024-01-29T01:23:09.058Z,0.51
2024-01-29T01:25:36.639Z,0.45
2024-01-29T01:28:04.772Z,0.33
2024-01-29T01:30:33.843Z,0.24
2024-01-29T01:33:01.557Z,0.23
2024-01-29T01:35:29.206Z,0.07
2024-01-29T01:37:56.901Z,0.18
2024-01-29T01:40:25.043Z,0.24
2024-01-29T01:42:52.881Z,0.10
2024-01-29T01:45:20.609Z,0.18
2024-01-29T01:47:49.629Z,0.06
2024-01-29T01:50:17.751Z,0.34
2024-01-29T01:52:45.622Z,0.16
2024-01-29T01:55:13.551Z,0.08
2024-01-29T01:57:42.041Z,0.23
2024-01-29T02:00:12.469Z,0.21
2024-01-29T02:02:40.877Z,0.23
2024-01-29T02:05:10.436Z,0.10
2024-01-29T02:07:38.214Z,0.10
2024-01-29T02:10:06.786Z,0.16
2024-01-29T02:12:34.560Z,0.13
2024-01-29T02:15:02.277Z,0.17
2024-01-29T02:17:29.939Z,0.20
2024-01-29T02:19:57.944Z,0.15
2024-01-29T02:22:26.994Z,0.12
2024-01-29T02:24:55.984Z,0.06
2024-01-29T02:27:23.662Z,0.02
2024-01-29T02:29:51.482Z,0.02
2024-01-29T02:32:19.118Z,-0.05
2024-01-29T02:34:46.877Z,-0.06
2024-01-29T02:37:14.757Z,0.01
2024-01-29T02:39:42.398Z,0.07
2024-01-29T02:42:11.395Z,0.04
2024-01-29T02:44:38.985Z,0.02
2024-01-29T02:47:06.681Z,0.01
2024-01-29T02:49:35.468Z,-0.02
2024-01-29T02:52:03.335Z,-0.12
2024-01-29T02:54:31.081Z,-0.02
2024-01-29T02:56:58.774Z,-0.11
2024-01-29T02:59:27.751Z,-0.15
2024-01-29T03:01:55.577Z,-0.04
2024-01-29T03:04:23.850Z,-0.10
2024-01-29T03:06:51.637Z,-0.32
2024-01-29T03:09:19.262Z,-0.05
2024-01-29T03:11:46.886Z,-0.18
2024-01-29T03:14:14.652Z,-0.02
2024-01-29T03:16:43.615Z,-0.11
2024-01-29T03:19:11.363Z,-0.10
2024-01-29T03:21:39.448Z,-0.16
2024-01-29T03:24:07.340Z,-0.30
2024-01-29T03:26:35.000Z,-0.21
2024-01-29T03:29:02.606Z,-0.07
2024-01-29T03:31:30.320Z,-0.15
2024-01-29T03:33:59.709Z,-0.12
2024-01-29T03:36:27.616Z,-0.23
2024-01-29T03:38:55.386Z,-0.17
2024-01-29T03:41:22.990Z,-0.13
2024-01-29T03:43:50.602Z,-0.10
2024-01-29T03:46:18.203Z,-0.17
2024-01-29T03:48:45.934Z,-0.11
2024-01-29T03:51:15.013Z,-0.36
2024-01-29T03:53:42.664Z,-0.24
2024-01-29T03:56:10.496Z,-0.39
2024-01-29T03:58:38.140Z,-0.26
2024-01-29T04:01:05.809Z,-0.30
2024-01-29T04:03:33.640Z,-0.24
2024-01-29T04:06:01.483Z,-0.23
2024-01-29T04:08:30.483Z,-0.20
2024-01-29T04:10:58.253Z,-0.41
2024-01-29T04:13:25.973Z,-0.42
2024-01-29T04:15:54.568Z,-0.42
2024-01-29T04:18:22.678Z,-0.40
2024-01-29T04:20:50.953Z,-0.56
2024-01-29T04:23:18.800Z,-0.41
2024-01-29T04:25:47.831Z,-0.35
2024-01-29T04:28:15.438Z,-0.47
2024-01-29T04:30:43.786Z,-0.49
2024-01-29T04:33:11.492Z,-0.67
2024-01-29T04:35:39.212Z,-0.37
2024-01-29T04:38:07.245Z,-0.41
2024-01-29T04:40:39.995Z,-0.35
2024-01-29T04:43:09.150Z,-0.38
2024-01-29T04:45:36.976Z,-0.46
2024-01-29T04:48:05.078Z,-0.31
2024-01-29T04:50:32.770Z,-0.53
2024-01-29T04:53:00.443Z,-0.45
2024-01-29T04:55:28.225Z,-0.68
2024-01-29T04:57:56.046Z,-0.62
2024-01-29T05:00:25.300Z,-0.64
2024-01-29T05:02:53.312Z,-0.58
2024-01-29T05:05:21.063Z,-0.49
2024-01-29T05:07:48.824Z,-0.56
2024-01-29T05:10:16.795Z,-0.46
2024-01-29T05:12:44.474Z,-0.57
2024-01-29T05:15:13.071Z,-0.46
2024-01-29T05:17:42.142Z,-0.40
2024-01-29T05:20:10.900Z,-0.36
2024-01-29T05:22:38.615Z,-0.63
2024-01-29T05:25:06.659Z,-0.50
2024-01-29T05:27:34.369Z,-0.61
2024-01-29T05:30:02.553Z,-0.41
2024-01-29T05:32:30.468Z,-0.48
2024-01-29T05:35:00.255Z,-0.42
2024-01-29T05:37:28.054Z,-0.47
2024-01-29T05:39:55.758Z,-0.52
2024-01-29T05:42:23.594Z,-0.56
2024-01-29T05:44:51.978Z,-0.54
2024-01-29T05:47:19.950Z,-0.37
2024-01-29T05:49:47.852Z,-0.42
2024-01-29T05:52:16.809Z,-0.41
2024-01-29T05:54:44.689Z,-0.50
2024-01-29T05:57:12.841Z,-0.57
2024-01-29T05:59:40.775Z,-0.57
2024-01-29T06:02:08.736Z,-0.50
2024-01-29T06:04:36.659Z,-0.31
2024-01-29T06:07:04.715Z,-0.42
2024-01-29T06:09:33.768Z,-0.66
2024-01-29T06:12:01.467Z,-0.54
2024-01-29T06:14:29.384Z,-0.55
2024-01-29T06:16:57.488Z,-0.64
2024-01-29T06:19:25.509Z,-0.54
2024-01-29T06:21:53.433Z,-0.61
2024-01-29T06:24:21.185Z,-0.53
2024-01-29T06:26:50.213Z,-0.58
2024-01-29T06:29:17.897Z,-0.67
2024-01-29T06:31:45.545Z,-0.78
2024-01-29T06:34:13.299Z,-0.56
2024-01-29T06:36:41.016Z,-0.56
2024-01-29T06:39:09.443Z,-0.43
2024-01-29T06:41:37.205Z,-0.35
2024-01-29T06:44:06.310Z,-0.55
2024-01-29T06:46:34.104Z,-0.43
2024-01-29T06:49:01.865Z,-0.40
2024-01-29T06:51:29.614Z,-0.64
2024-01-29T06:53:58.626Z,-0.48
2024-01-29T06:56:26.318Z,-0.78
2024-01-29T06:58:54.195Z,-0.60
2024-01-29T07:01:23.404Z,-0.56
2024-01-29T07:03:51.271Z,-0.42
2024-01-29T07:06:19.893Z,-0.47
2024-01-29T07:08:47.878Z,-0.57
2024-01-29T07:11:16.117Z,-0.65
2024-01-29T07:13:43.718Z,-0.51
2024-01-29T07:16:11.564Z,-0.49
2024-01-29T07:18:40.666Z,-0.32
2024-01-29T07:21:08.483Z,-0.51
2024-01-29T07:23:36.080Z,-0.65
2024-01-29T07:26:03.738Z,-0.60
2024-01-29T07:28:32.650Z,-0.69
2024-01-29T07:31:00.393Z,-0.67
2024-01-29T07:33:28.221Z,-0.61
2024-01-29T07:35:57.241Z,-0.54
2024-01-29T07:38:24.871Z,-0.38
2024-01-29T07:40:52.519Z,-0.44
2024-01-29T07:43:20.316Z,-0.54
2024-01-29T07:45:47.943Z,-0.44
2024-01-29T07:48:15.784Z,-0.38
2024-01-29T07:50:43.445Z,-0.56
2024-01-29T07:53:12.441Z,-0.60
2024-01-29T07:55:40.034Z,-0.46
2024-01-29T07:58:09.685Z,-0.37
2024-01-29T08:00:37.409Z,-0.23
2024-01-29T08:03:07.289Z,-0.20
2024-01-29T08:05:34.944Z,-0.24
2024-01-29T08:08:02.728Z,-0.20
2024-01-29T08:10:31.665Z,-0.04
2024-01-29T08:12:59.329Z,0.09
2024-01-29T08:15:29.626Z,-0.04
2024-01-29T08:17:57.682Z,-0.02
2024-01-29T08:20:26.833Z,0.21
2024-01-29T08:22:54.874Z,0.06
2024-01-29T08:25:22.638Z,0.03
2024-01-29T08:27:51.661Z,0.13
2024-01-29T08:30:19.731Z,0.16
2024-01-29T08:32:47.366Z,0.07
2024-01-29T08:35:15.381Z,0.07
2024-01-29T08:37:43.193Z,0.10
2024-01-29T08:40:11.691Z,0.24
2024-01-29T08:42:39.469Z,0.13
2024-01-29T08:45:08.981Z,0.46
2024-01-29T08:47:36.678Z,0.34
2024-01-29T08:50:04.775Z,0.51
2024-01-29T08:52:32.533Z,0.47
2024-01-29T08:55:00.564Z,0.39
2024-01-29T08:57:29.765Z,0.52
2024-01-29T08:59:57.368Z,0.63
2024-01-29T09:02:28.858Z,0.76
2024-01-29T09:04:56.593Z,0.81
2024-01-29T09:07:24.692Z,0.88
2024-01-29T09:09:52.361Z,0.98
2024-01-29T09:12:20.011Z,1.19
2024-01-29T09:14:47.723Z,1.35
2024-01-29T09:17:15.356Z,1.52
2024-01-29T09:19:46.398Z,1.65
2024-01-29T09:22:14.358Z,1.76
2024-01-29T09:24:42.339Z,1.75
2024-01-29T09:27:10.024Z,1.77
2024-01-29T09:29:37.673Z,1.80
2024-01-29T09:32:05.891Z,2.14
2024-01-29T09:34:34.206Z,2.37
2024-01-29T09:37:03.281Z,2.41
2024-01-29T09:39:31.066Z,2.56
2024-01-29T09:42:04.920Z,2.78
2024-01-29T09:44:38.809Z,2.82
2024-01-29T09:47:07.668Z,3.07
2024-01-29T09:49:36.493Z,3.35
2024-01-29T09:52:06.665Z,3.77
2024-01-29T09:54:36.065Z,4.02
2024-01-29T09:57:03.940Z,4.30
2024-01-29T09:59:31.730Z,4.42
2024-01-29T10:02:02.373Z,4.85
2024-01-29T10:04:30.355Z,4.96
2024-01-29T10:06:58.576Z,4.91
2024-01-29T10:09:27.656Z,5.06
2024-01-29T10:11:55.280Z,5.46
2024-01-29T10:14:23.028Z,5.80
2024-01-29T10:16:52.186Z,6.03
2024-01-29T10:19:20.200Z,6.34
2024-01-29T10:21:48.487Z,6.57
2024-01-29T10:24:17.547Z,6.47
2024-01-29T10:26:47.544Z,6.64
2024-01-29T10:29:17.402Z,6.88
2024-01-29T10:31:45.282Z,7.16
2024-01-29T10:34:13.201Z,7.14
2024-01-29T10:36:41.786Z,7.31
2024-01-29T10:39:14.236Z,7.68
2024-01-29T10:41:48.244Z,8.01
2024-01-29T10:44:18.713Z,8.10
2024-01-29T10:46:49.010Z,8.35
2024-01-29T10:49:17.583Z,8.75
2024-01-29T10:51:47.324Z,9.55
2024-01-29T10:54:15.524Z,10.03
2024-01-29T10:56:44.131Z,10.40
2024-01-29T10:59:14.095Z,11.06
2024-01-29T11:01:52.115Z,11.70
2024-01-29T11:04:26.205Z,11.91
2024-01-29T11:06:58.255Z,11.81
2024-01-29T11:09:30.041Z,11.98
2024-01-29T11:11:58.134Z,12.40
2024-01-29T11:14:27.355Z,12.67
2024-01-29T11:16:55.058Z,12.63
2024-01-29T11:19:23.158Z,12.97
2024-01-29T11:21:51.520Z,13.48
2024-01-29T11:24:23.286Z,13.70
2024-01-29T11:26:53.197Z,13.68
2024-01-29T11:29:23.650Z,14.19
2024-01-29T11:31:55.031Z,14.56
2024-01-29T11:34:28.003Z,14.79
2024-01-29T11:36:56.354Z,15.08
2024-01-29T11:39:25.954Z,15.43
2024-01-29T11:41:54.555Z,15.30
2024-01-29T11:44:23.420Z,14.86
2024-01-29T11:46:53.148Z,14.95
2024-01-29T11:49:27.677Z,15.14
2024-01-29T11:51:56.057Z,14.96
2024-01-29T11:54:26.706Z,15.12
2024-01-29T11:56:54.527Z,14.29
2024-01-29T11:59:22.351Z,13.93
2024-01-29T12:01:52.269Z,13.82
2024-01-29T12:04:21.821Z,13.60
2024-01-29T12:06:54.391Z,13.41
2024-01-29T12:09:22.186Z,13.65
2024-01-29T12:11:49.770Z,13.68
2024-01-29T12:14:17.362Z,13.45
2024-01-29T12:16:45.489Z,13.39
2024-01-29T12:19:13.200Z,13.19
2024-01-29T12:21:43.225Z,12.91
2024-01-29T12:24:11.476Z,12.83
2024-01-29T12:26:40.338Z,13.35
2024-01-29T12:29:09.008Z,13.53
2024-01-29T12:31:39.537Z,13.76
2024-01-29T12:34:09.010Z,13.87
2024-01-29T12:36:37.139Z,14.19
2024-01-29T12:39:12.540Z,14.70
2024-01-29T12:41:41.706Z,14.72
2024-01-29T12:44:13.422Z,14.89
2024-01-29T12:46:41.868Z,14.96
2024-01-29T12:49:09.680Z,14.86
2024-01-29T12:51:37.501Z,14.72
2024-01-29T12:54:07.715Z,14.98
2024-01-29T12:56:35.341Z,15.00
2024-01-29T12:59:07.466Z,15.10
2024-01-29T13:01:35.961Z,15.31
2024-01-29T13:04:04.162Z,15.38
2024-01-29T13:06:32.286Z,15.36
2024-01-29T13:09:00.022Z,15.32
2024-01-29T13:11:29.216Z,15.43
2024-01-29T13:13:57.113Z,15.23
2024-01-29T13:16:26.150Z,15.30
2024-01-29T13:18:54.242Z,15.52
2024-01-29T13:21:22.360Z,15.60
2024-01-29T13:23:50.147Z,15.78
2024-01-29T13:26:19.382Z,15.57
2024-01-29T13:28:48.680Z,15.58
2024-01-29T13:31:16.514Z,15.71
2024-01-29T13:33:44.379Z,15.35
2024-01-29T13:36:12.272Z,15.50
2024-01-29T13:38:40.044Z,15.25
2024-01-29T13:41:10.044Z,15.45
2024-01-29T13:43:37.728Z,15.40
2024-01-29T13:46:06.968Z,14.86
2024-01-29T13:48:34.689Z,14.81
2024-01-29T13:51:02.517Z,15.40
2024-01-29T13:53:30.205Z,15.41
2024-01-29T13:55:57.943Z,15.25
2024-01-29T13:58:26.682Z,14.94
2024-01-29T14:00:54.563Z,14.47
2024-01-29T14:03:23.654Z,14.07
2024-01-29T14:05:51.429Z,13.92
2024-01-29T14:08:19.337Z,13.86
2024-01-29T14:10:47.019Z,13.73
2024-01-29T14:13:17.239Z,13.71
2024-01-29T14:15:45.053Z,13.41
2024-01-29T14:18:12.677Z,13.16
2024-01-29T14:20:41.694Z,12.78
2024-01-29T14:23:10.351Z,12.58
2024-01-29T14:25:38.011Z,12.59
2024-01-29T14:28:06.393Z,12.27
2024-01-29T14:30:34.209Z,12.19
2024-01-29T14:33:02.003Z,12.29
2024-01-29T14:35:29.743Z,12.22
2024-01-29T14:37:58.850Z,12.02
2024-01-29T14:40:26.465Z,11.86
2024-01-29T14:42:54.183Z,11.71
2024-01-29T14:45:21.826Z,11.69
2024-01-29T14:47:50.482Z,11.45
2024-01-29T14:50:18.418Z,11.40
2024-01-29T14:52:46.101Z,11.24
2024-01-29T14:55:15.260Z,11.06
2024-01-29T14:57:42.992Z,10.90
2024-01-29T15:00:12.508Z,10.94
2024-01-29T15:02:40.156Z,10.86
2024-01-29T15:05:10.195Z,10.89
2024-01-29T15:07:38.046Z,10.95
2024-01-29T15:10:09.219Z,10.83
2024-01-29T15:12:39.985Z,10.80
2024-01-29T15:15:08.587Z,10.81
2024-01-29T15:17:36.541Z,10.67
2024-01-29T15:20:07.391Z,10.46
2024-01-29T15:22:35.136Z,10.37
2024-01-29T15:25:04.451Z,10.42
2024-01-29T15:27:32.410Z,10.26
2024-01-29T15:30:02.101Z,9.97
2024-01-29T15:32:29.814Z,9.74
2024-01-29T15:34:57.617Z,9.65
2024-01-29T15:37:25.353Z,9.50
2024-01-29T15:39:53.081Z,9.52
2024-01-29T15:42:20.798Z,9.29
2024-01-29T15:44:48.474Z,9.13
2024-01-29T15:47:17.974Z,9.08
2024-01-29T15:49:45.633Z,8.83
2024-01-29T15:52:13.403Z,8.78
2024-01-29T15:54:41.290Z,8.78
2024-01-29T15:57:09.075Z,8.50
2024-01-29T15:59:37.483Z,8.46
2024-01-29T16:02:07.617Z,8.37
2024-01-29T16:04:39.822Z,8.22
2024-01-29T16:07:08.440Z,8.25
2024-01-29T16:09:36.164Z,8.03
2024-01-29T16:12:04.165Z,8.03
2024-01-29T16:14:31.869Z,7.66
2024-01-29T16:16:59.646Z,7.53
2024-01-29T16:19:27.617Z,7.39
2024-01-29T16:21:57.678Z,7.44
2024-01-29T16:24:25.989Z,7.39
2024-01-29T16:26:53.833Z,7.39
2024-01-29T16:29:21.517Z,7.29
2024-01-29T16:31:53.543Z,7.20
2024-01-29T16:34:21.610Z,7.33
2024-01-29T16:36:49.540Z,7.28
2024-01-29T16:39:18.705Z,7.13
2024-01-29T16:41:46.312Z,7.23
2024-01-29T16:44:15.331Z,7.01
2024-01-29T16:46:43.368Z,6.88
2024-01-29T16:49:11.262Z,6.90
2024-01-29T16:51:39.036Z,6.94
2024-01-29T16:54:06.742Z,6.80
2024-01-29T16:56:37.535Z,6.76
2024-01-29T16:59:08.604Z,6.74
2024-01-29T17:01:36.490Z,6.73
2024-01-29T17:04:04.817Z,6.65
2024-01-29T17:06:32.946Z,6.55
2024-01-29T17:09:00.928Z,6.56
2024-01-29T17:11:28.680Z,6.44
2024-01-29T17:13:57.740Z,6.32
2024-01-29T17:16:25.559Z,6.37
2024-01-29T17:18:53.268Z,6.10
2024-01-29T17:21:21.631Z,5.94
2024-01-29T17:23:49.730Z,5.95
2024-01-29T17:26:17.501Z,5.98
2024-01-29T17:28:46.129Z,6.04
2024-01-29T17:31:15.194Z,5.88
2024-01-29T17:33:43.093Z,5.88
2024-01-29T17:36:11.355Z,5.80
2024-01-29T17:38:39.219Z,5.83
2024-01-29T17:41:06.874Z,5.73
2024-01-29T17:43:34.678Z,5.71
2024-01-29T17:46:02.339Z,5.68
2024-01-29T17:48:31.698Z,5.72
2024-01-29T17:50:59.397Z,5.73
2024-01-29T17:53:29.794Z,5.66
2024-01-29T17:55:57.896Z,5.65
2024-01-29T17:58:25.592Z,5.47
2024-01-29T18:00:53.460Z,5.42
2024-01-29T18:03:23.742Z,5.39
2024-01-29T18:05:52.862Z,5.23
2024-01-29T18:08:21.352Z,5.25
2024-01-29T18:10:49.172Z,5.36
2024-01-29T18:13:16.899Z,5.18
2024-01-29T18:15:44.699Z,5.12
2024-01-29T18:18:12.390Z,5.32
2024-01-29T18:20:40.110Z,5.08
2024-01-29T18:23:10.927Z,4.93
2024-01-29T18:25:40.214Z,4.80
2024-01-29T18:28:08.239Z,4.71
2024-01-29T18:30:35.941Z,4.88
2024-01-29T18:33:04.453Z,4.93
2024-01-29T18:35:32.277Z,4.78
2024-01-29T18:37:59.927Z,4.57
2024-01-29T18:40:33.853Z,4.52
2024-01-29T18:43:01.897Z,4.61
2024-01-29T18:45:29.641Z,4.55
2024-01-29T18:47:57.442Z,4.46
2024-01-29T18:50:25.293Z,4.37
2024-01-29T18:52:53.014Z,4.42
2024-01-29T18:55:20.678Z,4.36
2024-01-29T18:57:49.818Z,4.41
2024-01-29T19:00:18.691Z,4.35
2024-01-29T19:02:46.383Z,4.30
2024-01-29T19:05:14.712Z,4.18
2024-01-29T19:07:48.257Z,4.15
2024-01-29T19:10:16.499Z,4.14
2024-01-29T19:12:44.345Z,3.93
2024-01-29T19:15:13.405Z,4.05
2024-01-29T19:17:41.057Z,4.14
2024-01-29T19:20:10.203Z,3.90
2024-01-29T19:22:37.924Z,3.92
2024-01-29T19:25:06.916Z,3.80
2024-01-29T19:27:34.696Z,3.96
2024-01-29T19:30:02.383Z,3.78
2024-01-29T19:32:31.483Z,3.80
2024-01-29T19:34:59.308Z,3.84
2024-01-29T19:37:30.492Z,3.73
2024-01-29T19:40:02.288Z,3.87
2024-01-29T19:42:30.125Z,3.59
2024-01-29T19:44:57.839Z,3.62
2024-01-29T19:47:25.518Z,3.42
2024-01-29T19:49:57.472Z,3.49
2024-01-29T19:52:26.067Z,3.56
2024-01-29T19:54:53.783Z,3.68
2024-01-29T19:57:22.180Z,3.45
2024-01-29T19:59:49.787Z,3.47
2024-01-29T20:02:17.423Z,3.53
2024-01-29T20:04:45.234Z,3.54
2024-01-29T20:07:14.373Z,3.34
2024-01-29T20:09:42.107Z,3.37
2024-01-29T20:12:09.924Z,3.40
2024-01-29T20:14:38.993Z,3.26
2024-01-29T20:17:06.638Z,3.19
2024-01-29T20:19:34.434Z,3.09
2024-01-29T20:22:02.335Z,2.84
2024-01-29T20:24:31.523Z,2.93
2024-01-29T20:26:59.188Z,3.17
2024-01-29T20:29:27.390Z,2.92
2024-01-29T20:31:55.559Z,2.92
2024-01-29T20:34:23.311Z,2.99
2024-01-29T20:36:51.122Z,3.12
2024-01-29T20:39:18.909Z,2.96
2024-01-29T20:41:49.901Z,2.90
2024-01-29T20:44:17.559Z,2.80
2024-01-29T20:46:47.338Z,2.92
2024-01-29T20:49:16.071Z,2.83
2024-01-29T20:51:43.908Z,2.71
2024-01-29T20:54:11.905Z,2.65
2024-01-29T20:56:40.231Z,2.59
2024-01-29T20:59:09.485Z,2.74
2024-01-29T21:01:37.331Z,2.47
2024-01-29T21:04:05.299Z,2.56
2024-01-29T21:06:33.654Z,2.58
2024-01-29T21:09:01.382Z,2.55
2024-01-29T21:11:28.987Z,2.57
2024-01-29T21:13:56.713Z,2.60
2024-01-29T21:16:28.451Z,2.65
2024-01-29T21:18:58.627Z,2.66
2024-01-29T21:21:28.997Z,2.54
2024-01-29T21:23:56.652Z,2.65
2024-01-29T21:26:28.131Z,2.41
2024-01-29T21:28:56.041Z,2.27
2024-01-29T21:31:25.227Z,2.31
2024-01-29T21:33:53.092Z,2.29
2024-01-29T21:36:21.863Z,2.24
2024-01-29T21:38:49.504Z,2.19
2024-01-29T21:41:17.109Z,2.21
2024-01-29T21:43:44.781Z,2.35
2024-01-29T21:46:12.586Z,2.18
2024-01-29T21:48:41.877Z,2.20
2024-01-29T21:51:09.757Z,2.21
2024-01-29T21:53:37.860Z,2.30
2024-01-29T21:56:06.152Z,2.43
2024-01-29T21:58:33.772Z,2.19
2024-01-29T22:01:01.485Z,2.01
2024-01-29T22:03:29.251Z,1.96
2024-01-29T22:05:58.277Z,2.03
2024-01-29T22:08:28.259Z,2.12
2024-01-29T22:10:56.209Z,2.19
2024-01-29T22:13:23.997Z,2.17
2024-01-29T22:15:51.717Z,2.07
2024-01-29T22:18:19.365Z,2.07
2024-01-29T22:20:47.048Z,2.02
2024-01-29T22:23:16.021Z,2.15
2024-01-29T22:25:43.662Z,2.06
2024-01-29T22:28:11.320Z,2.08
2024-01-29T22:30:39.042Z,2.05
2024-01-29T22:33:07.912Z,1.96
2024-01-29T22:35:35.637Z,1.99
2024-01-29T22:38:03.413Z,2.00
2024-01-29T22:40:32.396Z,1.88
2024-01-29T22:43:00.119Z,1.88
2024-01-29T22:45:27.991Z,1.78
2024-01-29T22:47:55.793Z,1.79
2024-01-29T22:50:23.473Z,1.82
2024-01-29T22:52:51.157Z,1.87
2024-01-29T22:55:19.101Z,1.81
2024-01-29T22:57:48.171Z,1.74
2024-01-29T23:00:22.675Z,1.80
2024-01-29T23:02:50.399Z,1.83
2024-01-29T23:05:18.350Z,1.67
2024-01-29T23:07:46.536Z,1.80
2024-01-29T23:10:14.803Z,1.60
2024-01-29T23:12:42.532Z,1.70
2024-01-29T23:15:12.561Z,1.75
2024-01-29T23:17:40.236Z,1.65
2024-01-29T23:20:11.393Z,1.56
2024-01-29T23:22:39.208Z,1.64
2024-01-29T23:25:07.509Z,1.61
2024-01-29T23:27:36.942Z,1.82
2024-01-29T23:30:06.509Z,1.78
2024-01-29T23:32:35.534Z,1.63
2024-01-29T23:35:03.196Z,1.66
2024-01-29T23:37:30.872Z,1.66
2024-01-29T23:39:58.696Z,1.41
2024-01-29T23:42:26.399Z,1.39
2024-01-29T23:44:54.120Z,1.54
2024-01-29T23:47:21.729Z,1.49
2024-01-29T23:49:50.801Z,1.48
2024-01-29T23:52:26.804Z,1.59
2024-01-29T23:54:54.673Z,1.62
2024-01-29T23:57:22.427Z,1.55
2024-01-29T23:59:51.560Z,1.49
